sensor_id;sensor_type;location;lat;lon;timestamp;P1;durP1;ratioP1;P2;durP2;ratioP2
49502;SDS011;35409;48.776;9.204;2024-01-15T00:02:13;25.70;;;10.65;;
49502;SDS011;35409;48.776;9.204;2024-01-15T00:04:39;26.98;;;10.27;;
49502;SDS011;35409;48.776;9.204;2024-01-15T00:07:09;22.95;;;10.32;;
49502;SDS011;35409;48.776;9.204;2024-01-15T00:09:35;22.75;;;10.02;;
49502;SDS011;35409;48.776;9.204;2024-01-15T00:12:01;29.67;;;10.80;;
49502;SDS011;35409;48.776;9.204;2024-01-15T00:14:28;25.40;;;10.95;;
49502;SDS011;35409;48.776;9.204;2024-01-15T00:16:54;26.50;;;11.65;;
49502;SDS011;35409;48.776;9.204;2024-01-15T00:19:23;28.05;;;11.15;;
49502;SDS011;35409;48.776;9.204;2024-01-15T00:21:49;30.00;;;12.35;;
49502;SDS011;35409;48.776;9.204;2024-01-15T00:24:15;28.27;;;10.50;;
49502;SDS011;35409;48.776;9.204;2024-01-15T00:26:41;25.08;;;11.35;;
49502;SDS011;35409;48.776;9.204;2024-01-15T00:29:08;22.10;;;9.65;;
49502;SDS011;35409;48.776;9.204;2024-01-15T00:31:34;28.88;;;11.10;;
49502;SDS011;35409;48.776;9.204;2024-01-15T00:34:00;32.08;;;12.07;;
49502;SDS011;35409;48.776;9.204;2024-01-15T00:36:26;29.90;;;11.57;;
49502;SDS011;35409;48.776;9.204;2024-01-15T00:38:52;28.17;;;11.45;;
49502;SDS011;35409;48.776;9.204;2024-01-15T00:41:18;27.45;;;11.40;;
49502;SDS011;35409;48.776;9.204;2024-01-15T00:43:45;24.67;;;10.75;;
49502;SDS011;35409;48.776;9.204;2024-01-15T00:46:11;25.30;;;10.38;;
49502;SDS011;35409;48.776;9.204;2024-01-15T00:48:37;27.85;;;10.57;;
49502;SDS011;35409;48.776;9.204;2024-01-15T00:51:06;31.77;;;11.60;;
49502;SDS011;35409;48.776;9.204;2024-01-15T00:53:32;30.02;;;11.20;;
49502;SDS011;35409;48.776;9.204;2024-01-15T00:55:58;25.80;;;10.40;;
49502;SDS011;35409;48.776;9.204;2024-01-15T00:58:25;26.67;;;10.98;;
49502;SDS011;35409;48.776;9.204;2024-01-15T01:00:51;26.75;;;10.02;;
49502;SDS011;35409;48.776;9.204;2024-01-15T01:03:17;26.98;;;10.88;;
49502;SDS011;35409;48.776;9.204;2024-01-15T01:05:44;26.77;;;10.60;;
49502;SDS011;35409;48.776;9.204;2024-01-15T01:08:09;27.27;;;10.32;;
49502;SDS011;35409;48.776;9.204;2024-01-15T01:10:37;26.85;;;10.25;;
49502;SDS011;35409;48.776;9.204;2024-01-15T01:13:02;27.15;;;10.18;;
49502;SDS011;35409;48.776;9.204;2024-01-15T01:15:28;30.15;;;10.00;;
49502;SDS011;35409;48.776;9.204;2024-01-15T01:17:54;28.40;;;11.90;;
49502;SDS011;35409;48.776;9.204;2024-01-15T01:20:20;29.05;;;10.90;;
49502;SDS011;35409;48.776;9.204;2024-01-15T01:22:47;26.63;;;9.77;;
49502;SDS011;35409;48.776;9.204;2024-01-15T01:25:12;25.77;;;9.73;;
49502;SDS011;35409;48.776;9.204;2024-01-15T01:27:38;25.02;;;9.52;;
49502;SDS011;35409;48.776;9.204;2024-01-15T01:30:05;28.65;;;10.40;;
49502;SDS011;35409;48.776;9.204;2024-01-15T01:32:31;26.08;;;9.45;;
49502;SDS011;35409;48.776;9.204;2024-01-15T01:34:58;28.27;;;10.07;;
49502;SDS011;35409;48.776;9.204;2024-01-15T01:37:24;29.75;;;9.73;;
49502;SDS011;35409;48.776;9.204;2024-01-15T01:39:50;25.83;;;10.63;;
49502;SDS011;35409;48.776;9.204;2024-01-15T01:42:16;25.15;;;10.00;;
49502;SDS011;35409;48.776;9.204;2024-01-15T01:44:42;31.42;;;10.65;;
49502;SDS011;35409;48.776;9.204;2024-01-15T01:47:07;27.42;;;9.95;;
49502;SDS011;35409;48.776;9.204;2024-01-15T01:49:33;24.00;;;9.75;;
49502;SDS011;35409;48.776;9.204;2024-01-15T01:52:01;23.60;;;9.93;;
49502;SDS011;35409;48.776;9.204;2024-01-15T01:54:31;29.05;;;10.35;;
49502;SDS011;35409;48.776;9.204;2024-01-15T01:56:58;27.75;;;9.77;;
49502;SDS011;35409;48.776;9.204;2024-01-15T01:59:25;23.52;;;9.98;;
49502;SDS011;35409;48.776;9.204;2024-01-15T02:01:53;26.90;;;9.77;;
49502;SDS011;35409;48.776;9.204;2024-01-15T02:04:19;27.77;;;10.20;;
49502;SDS011;35409;48.776;9.204;2024-01-15T02:06:47;26.73;;;9.63;;
49502;SDS011;35409;48.776;9.204;2024-01-15T02:09:13;24.20;;;10.65;;
49502;SDS011;35409;48.776;9.204;2024-01-15T02:11:46;24.90;;;9.60;;
49502;SDS011;35409;48.776;9.204;2024-01-15T02:14:12;24.88;;;9.55;;
49502;SDS011;35409;48.776;9.204;2024-01-15T02:16:38;25.67;;;10.13;;
49502;SDS011;35409;48.776;9.204;2024-01-15T02:19:04;23.83;;;10.10;;
49502;SDS011;35409;48.776;9.204;2024-01-15T02:21:31;21.95;;;9.10;;
49502;SDS011;35409;48.776;9.204;2024-01-15T02:23:57;21.80;;;9.23;;
49502;SDS011;35409;48.776;9.204;2024-01-15T02:26:24;28.35;;;9.23;;
49502;SDS011;35409;48.776;9.204;2024-01-15T02:28:52;25.67;;;9.40;;
49502;SDS011;35409;48.776;9.204;2024-01-15T02:31:19;24.52;;;10.15;;
49502;SDS011;35409;48.776;9.204;2024-01-15T02:33:45;25.95;;;9.98;;
49502;SDS011;35409;48.776;9.204;2024-01-15T02:36:13;24.83;;;9.85;;
49502;SDS011;35409;48.776;9.204;2024-01-15T02:38:41;20.90;;;9.40;;
49502;SDS011;35409;48.776;9.204;2024-01-15T02:41:06;25.08;;;9.90;;
49502;SDS011;35409;48.776;9.204;2024-01-15T02:43:32;25.05;;;10.30;;
49502;SDS011;35409;48.776;9.204;2024-01-15T02:45:58;27.95;;;10.02;;
49502;SDS011;35409;48.776;9.204;2024-01-15T02:48:23;27.38;;;10.90;;
49502;SDS011;35409;48.776;9.204;2024-01-15T02:50:50;24.77;;;9.60;;
49502;SDS011;35409;48.776;9.204;2024-01-15T02:53:16;25.88;;;9.38;;
49502;SDS011;35409;48.776;9.204;2024-01-15T02:55:41;23.50;;;9.65;;
49502;SDS011;35409;48.776;9.204;2024-01-15T02:58:07;25.13;;;9.10;;
49502;SDS011;35409;48.776;9.204;2024-01-15T03:00:33;22.27;;;8.65;;
49502;SDS011;35409;48.776;9.204;2024-01-15T03:03:00;25.42;;;9.93;;
49502;SDS011;35409;48.776;9.204;2024-01-15T03:05:26;21.77;;;8.55;;
49502;SDS011;35409;48.776;9.204;2024-01-15T03:07:53;20.38;;;9.00;;
49502;SDS011;35409;48.776;9.204;2024-01-15T03:10:18;18.00;;;7.82;;
49502;SDS011;35409;48.776;9.204;2024-01-15T03:12:44;23.02;;;9.07;;
49502;SDS011;35409;48.776;9.204;2024-01-15T03:15:10;28.75;;;10.65;;
49502;SDS011;35409;48.776;9.204;2024-01-15T03:17:36;20.50;;;8.50;;
49502;SDS011;35409;48.776;9.204;2024-01-15T03:20:01;23.27;;;9.90;;
49502;SDS011;35409;48.776;9.204;2024-01-15T03:22:28;25.83;;;9.13;;
49502;SDS011;35409;48.776;9.204;2024-01-15T03:24:53;24.38;;;9.20;;
49502;SDS011;35409;48.776;9.204;2024-01-15T03:27:19;28.10;;;10.43;;
49502;SDS011;35409;48.776;9.204;2024-01-15T03:29:45;24.80;;;10.15;;
49502;SDS011;35409;48.776;9.204;2024-01-15T03:32:10;22.95;;;9.30;;
49502;SDS011;35409;48.776;9.204;2024-01-15T03:34:37;27.17;;;9.93;;
49502;SDS011;35409;48.776;9.204;2024-01-15T03:37:03;26.38;;;10.40;;
49502;SDS011;35409;48.776;9.204;2024-01-15T03:39:28;26.05;;;10.30;;
49502;SDS011;35409;48.776;9.204;2024-01-15T03:41:55;24.55;;;9.20;;
49502;SDS011;35409;48.776;9.204;2024-01-15T03:44:21;25.52;;;9.50;;
49502;SDS011;35409;48.776;9.204;2024-01-15T03:46:47;24.63;;;8.98;;
49502;SDS011;35409;48.776;9.204;2024-01-15T03:49:14;25.17;;;10.40;;
49502;SDS011;35409;48.776;9.204;2024-01-15T03:51:40;24.42;;;9.27;;
49502;SDS011;35409;48.776;9.204;2024-01-15T03:54:05;25.48;;;9.55;;
49502;SDS011;35409;48.776;9.204;2024-01-15T03:56:31;21.48;;;8.52;;
49502;SDS011;35409;48.776;9.204;2024-01-15T03:58:57;22.20;;;9.18;;
49502;SDS011;35409;48.776;9.204;2024-01-15T04:01:22;23.30;;;9.15;;
49502;SDS011;35409;48.776;9.204;2024-01-15T04:03:48;25.52;;;10.27;;
49502;SDS011;35409;48.776;9.204;2024-01-15T04:06:16;24.45;;;9.20;;
49502;SDS011;35409;48.776;9.204;2024-01-15T04:08:41;24.10;;;9.32;;
49502;SDS011;35409;48.776;9.204;2024-01-15T04:11:07;25.38;;;9.25;;
49502;SDS011;35409;48.776;9.204;2024-01-15T04:13:33;25.83;;;9.77;;
49502;SDS011;35409;48.776;9.204;2024-01-15T04:15:59;22.50;;;8.88;;
49502;SDS011;35409;48.776;9.204;2024-01-15T04:18:26;19.33;;;7.85;;
49502;SDS011;35409;48.776;9.204;2024-01-15T04:20:51;23.25;;;8.57;;
49502;SDS011;35409;48.776;9.204;2024-01-15T04:23:17;24.17;;;9.20;;
49502;SDS011;35409;48.776;9.204;2024-01-15T04:25:43;22.88;;;8.80;;
49502;SDS011;35409;48.776;9.204;2024-01-15T04:28:10;21.67;;;8.25;;
49502;SDS011;35409;48.776;9.204;2024-01-15T04:30:35;17.92;;;7.68;;
49502;SDS011;35409;48.776;9.204;2024-01-15T04:33:01;20.92;;;8.32;;
49502;SDS011;35409;48.776;9.204;2024-01-15T04:35:27;17.30;;;7.30;;
49502;SDS011;35409;48.776;9.204;2024-01-15T04:37:52;17.45;;;7.38;;
49502;SDS011;35409;48.776;9.204;2024-01-15T04:40:18;25.17;;;9.23;;
49502;SDS011;35409;48.776;9.204;2024-01-15T04:42:44;19.15;;;7.85;;
49502;SDS011;35409;48.776;9.204;2024-01-15T04:45:11;23.42;;;8.85;;
49502;SDS011;35409;48.776;9.204;2024-01-15T04:47:37;21.60;;;8.25;;
49502;SDS011;35409;48.776;9.204;2024-01-15T04:50:04;18.35;;;8.07;;
49502;SDS011;35409;48.776;9.204;2024-01-15T04:52:30;19.30;;;8.15;;
49502;SDS011;35409;48.776;9.204;2024-01-15T04:54:58;22.38;;;7.82;;
49502;SDS011;35409;48.776;9.204;2024-01-15T04:57:24;18.63;;;7.47;;
49502;SDS011;35409;48.776;9.204;2024-01-15T04:59:50;19.85;;;7.80;;
49502;SDS011;35409;48.776;9.204;2024-01-15T05:02:21;20.00;;;7.82;;
49502;SDS011;35409;48.776;9.204;2024-01-15T05:04:48;23.70;;;9.52;;
49502;SDS011;35409;48.776;9.204;2024-01-15T05:07:14;21.92;;;8.68;;
49502;SDS011;35409;48.776;9.204;2024-01-15T05:09:40;17.65;;;8.05;;
49502;SDS011;35409;48.776;9.204;2024-01-15T05:12:05;19.88;;;7.78;;
49502;SDS011;35409;48.776;9.204;2024-01-15T05:14:31;19.33;;;7.82;;
49502;SDS011;35409;48.776;9.204;2024-01-15T05:16:57;22.45;;;9.02;;
49502;SDS011;35409;48.776;9.204;2024-01-15T05:19:22;21.15;;;8.43;;
49502;SDS011;35409;48.776;9.204;2024-01-15T05:21:48;20.70;;;9.15;;
49502;SDS011;35409;48.776;9.204;2024-01-15T05:24:14;18.85;;;8.05;;
49502;SDS011;35409;48.776;9.204;2024-01-15T05:26:39;17.33;;;7.95;;
49502;SDS011;35409;48.776;9.204;2024-01-15T05:29:06;19.85;;;7.88;;
49502;SDS011;35409;48.776;9.204;2024-01-15T05:31:32;21.42;;;7.63;;
49502;SDS011;35409;48.776;9.204;2024-01-15T05:33:58;18.13;;;7.57;;
49502;SDS011;35409;48.776;9.204;2024-01-15T05:36:24;21.77;;;7.28;;
49502;SDS011;35409;48.776;9.204;2024-01-15T05:38:49;19.00;;;7.55;;
49502;SDS011;35409;48.776;9.204;2024-01-15T05:41:16;19.15;;;7.75;;
49502;SDS011;35409;48.776;9.204;2024-01-15T05:43:41;26.88;;;8.38;;
49502;SDS011;35409;48.776;9.204;2024-01-15T05:46:07;18.55;;;7.38;;
49502;SDS011;35409;48.776;9.204;2024-01-15T05:48:33;17.85;;;7.57;;
49502;SDS011;35409;48.776;9.204;2024-01-15T05:50:59;17.13;;;7.35;;
49502;SDS011;35409;48.776;9.204;2024-01-15T05:53:27;16.55;;;7.47;;
49502;SDS011;35409;48.776;9.204;2024-01-15T05:55:52;17.48;;;8.35;;
49502;SDS011;35409;48.776;9.204;2024-01-15T05:58:20;21.52;;;8.25;;
49502;SDS011;35409;48.776;9.204;2024-01-15T06:00:46;17.23;;;7.15;;
49502;SDS011;35409;48.776;9.204;2024-01-15T06:03:13;21.67;;;8.40;;
49502;SDS011;35409;48.776;9.204;2024-01-15T06:05:38;22.10;;;7.68;;
49502;SDS011;35409;48.776;9.204;2024-01-15T06:08:06;18.73;;;7.82;;
49502;SDS011;35409;48.776;9.204;2024-01-15T06:10:31;20.50;;;7.47;;
49502;SDS011;35409;48.776;9.204;2024-01-15T06:12:57;20.00;;;8.52;;
49502;SDS011;35409;48.776;9.204;2024-01-15T06:15:23;22.85;;;8.82;;
49502;SDS011;35409;48.776;9.204;2024-01-15T06:17:49;19.58;;;8.32;;
49502;SDS011;35409;48.776;9.204;2024-01-15T06:20:14;18.05;;;7.60;;
49502;SDS011;35409;48.776;9.204;2024-01-15T06:22:40;19.65;;;7.95;;
49502;SDS011;35409;48.776;9.204;2024-01-15T06:25:07;18.98;;;8.05;;
49502;SDS011;35409;48.776;9.204;2024-01-15T06:27:34;17.90;;;7.68;;
49502;SDS011;35409;48.776;9.204;2024-01-15T06:30:00;15.23;;;7.25;;
49502;SDS011;35409;48.776;9.204;2024-01-15T06:32:27;18.55;;;7.50;;
49502;SDS011;35409;48.776;9.204;2024-01-15T06:34:55;15.13;;;7.07;;
49502;SDS011;35409;48.776;9.204;2024-01-15T06:37:21;17.45;;;7.18;;
49502;SDS011;35409;48.776;9.204;2024-01-15T06:39:47;17.10;;;7.68;;
49502;SDS011;35409;48.776;9.204;2024-01-15T06:42:13;19.88;;;8.63;;
49502;SDS011;35409;48.776;9.204;2024-01-15T06:44:38;23.30;;;9.52;;
49502;SDS011;35409;48.776;9.204;2024-01-15T06:47:05;18.67;;;8.13;;
49502;SDS011;35409;48.776;9.204;2024-01-15T06:49:30;20.02;;;9.23;;
49502;SDS011;35409;48.776;9.204;2024-01-15T06:51:56;20.55;;;7.78;;
49502;SDS011;35409;48.776;9.204;2024-01-15T06:54:22;17.92;;;7.47;;
49502;SDS011;35409;48.776;9.204;2024-01-15T06:56:48;19.80;;;7.95;;
49502;SDS011;35409;48.776;9.204;2024-01-15T06:59:14;20.98;;;8.63;;
49502;SDS011;35409;48.776;9.204;2024-01-15T07:01:40;19.95;;;7.22;;
49502;SDS011;35409;48.776;9.204;2024-01-15T07:04:06;17.10;;;7.13;;
49502;SDS011;35409;48.776;9.204;2024-01-15T07:06:33;17.38;;;6.82;;
49502;SDS011;35409;48.776;9.204;2024-01-15T07:08:59;19.35;;;7.65;;
49502;SDS011;35409;48.776;9.204;2024-01-15T07:11:25;20.02;;;7.95;;
49502;SDS011;35409;48.776;9.204;2024-01-15T07:13:51;16.75;;;7.28;;
49502;SDS011;35409;48.776;9.204;2024-01-15T07:16:16;12.73;;;6.68;;
49502;SDS011;35409;48.776;9.204;2024-01-15T07:18:42;14.55;;;7.60;;
49502;SDS011;35409;48.776;9.204;2024-01-15T07:21:09;13.27;;;7.03;;
49502;SDS011;35409;48.776;9.204;2024-01-15T07:23:35;14.38;;;6.63;;
49502;SDS011;35409;48.776;9.204;2024-01-15T07:26:00;16.80;;;7.50;;
49502;SDS011;35409;48.776;9.204;2024-01-15T07:28:28;15.25;;;6.95;;
49502;SDS011;35409;48.776;9.204;2024-01-15T07:30:54;14.43;;;6.60;;
49502;SDS011;35409;48.776;9.204;2024-01-15T07:33:19;19.40;;;7.93;;
49502;SDS011;35409;48.776;9.204;2024-01-15T07:35:45;14.30;;;6.85;;
49502;SDS011;35409;48.776;9.204;2024-01-15T07:38:11;14.88;;;7.05;;
49502;SDS011;35409;48.776;9.204;2024-01-15T07:40:38;16.88;;;7.22;;
49502;SDS011;35409;48.776;9.204;2024-01-15T07:43:03;19.13;;;6.85;;
49502;SDS011;35409;48.776;9.204;2024-01-15T07:45:30;13.85;;;6.85;;
49502;SDS011;35409;48.776;9.204;2024-01-15T07:48:02;16.70;;;6.90;;
49502;SDS011;35409;48.776;9.204;2024-01-15T07:50:30;17.23;;;6.93;;
49502;SDS011;35409;48.776;9.204;2024-01-15T07:52:56;16.33;;;6.93;;
49502;SDS011;35409;48.776;9.204;2024-01-15T07:55:21;13.75;;;5.78;;
49502;SDS011;35409;48.776;9.204;2024-01-15T07:57:47;16.35;;;7.07;;
49502;SDS011;35409;48.776;9.204;2024-01-15T08:00:13;15.63;;;6.95;;
49502;SDS011;35409;48.776;9.204;2024-01-15T08:02:39;13.88;;;6.80;;
49502;SDS011;35409;48.776;9.204;2024-01-15T08:05:06;19.75;;;6.75;;
49502;SDS011;35409;48.776;9.204;2024-01-15T08:07:33;16.42;;;6.53;;
49502;SDS011;35409;48.776;9.204;2024-01-15T08:09:59;17.02;;;5.97;;
49502;SDS011;35409;48.776;9.204;2024-01-15T08:12:25;16.13;;;6.45;;
49502;SDS011;35409;48.776;9.204;2024-01-15T08:14:50;19.98;;;7.20;;
49502;SDS011;35409;48.776;9.204;2024-01-15T08:17:16;17.67;;;7.43;;
49502;SDS011;35409;48.776;9.204;2024-01-15T08:19:42;20.60;;;7.25;;
49502;SDS011;35409;48.776;9.204;2024-01-15T08:22:07;14.23;;;6.50;;
49502;SDS011;35409;48.776;9.204;2024-01-15T08:24:33;19.00;;;7.88;;
49502;SDS011;35409;48.776;9.204;2024-01-15T08:26:59;18.40;;;8.20;;
49502;SDS011;35409;48.776;9.204;2024-01-15T08:29:25;14.63;;;6.45;;
49502;SDS011;35409;48.776;9.204;2024-01-15T08:31:50;15.82;;;7.00;;
49502;SDS011;35409;48.776;9.204;2024-01-15T08:34:23;14.77;;;6.60;;
49502;SDS011;35409;48.776;9.204;2024-01-15T08:36:50;19.75;;;6.20;;
49502;SDS011;35409;48.776;9.204;2024-01-15T08:39:16;16.80;;;6.97;;
49502;SDS011;35409;48.776;9.204;2024-01-15T08:41:43;16.73;;;6.00;;
49502;SDS011;35409;48.776;9.204;2024-01-15T08:44:08;22.40;;;6.50;;
49502;SDS011;35409;48.776;9.204;2024-01-15T08:46:34;15.98;;;6.47;;
49502;SDS011;35409;48.776;9.204;2024-01-15T08:49:00;13.60;;;6.05;;
49502;SDS011;35409;48.776;9.204;2024-01-15T08:51:26;13.65;;;5.88;;
49502;SDS011;35409;48.776;9.204;2024-01-15T08:53:52;13.10;;;6.03;;
49502;SDS011;35409;48.776;9.204;2024-01-15T08:56:17;14.70;;;6.45;;
49502;SDS011;35409;48.776;9.204;2024-01-15T08:58:43;15.77;;;6.30;;
49502;SDS011;35409;48.776;9.204;2024-01-15T09:01:11;10.98;;;5.38;;
49502;SDS011;35409;48.776;9.204;2024-01-15T09:03:36;16.70;;;6.20;;
49502;SDS011;35409;48.776;9.204;2024-01-15T09:06:02;14.80;;;5.90;;
49502;SDS011;35409;48.776;9.204;2024-01-15T09:08:28;14.93;;;5.95;;
49502;SDS011;35409;48.776;9.204;2024-01-15T09:10:54;13.68;;;5.78;;
49502;SDS011;35409;48.776;9.204;2024-01-15T09:13:19;12.32;;;5.53;;
49502;SDS011;35409;48.776;9.204;2024-01-15T09:15:45;14.65;;;5.22;;
49502;SDS011;35409;48.776;9.204;2024-01-15T09:18:11;11.30;;;5.30;;
49502;SDS011;35409;48.776;9.204;2024-01-15T09:20:38;10.65;;;5.20;;
49502;SDS011;35409;48.776;9.204;2024-01-15T09:23:03;11.25;;;4.88;;
49502;SDS011;35409;48.776;9.204;2024-01-15T09:25:29;10.15;;;5.13;;
49502;SDS011;35409;48.776;9.204;2024-01-15T09:27:55;14.73;;;5.40;;
49502;SDS011;35409;48.776;9.204;2024-01-15T09:30:20;7.65;;;3.90;;
49502;SDS011;35409;48.776;9.204;2024-01-15T09:32:46;10.80;;;4.45;;
49502;SDS011;35409;48.776;9.204;2024-01-15T09:35:12;10.57;;;4.13;;
49502;SDS011;35409;48.776;9.204;2024-01-15T09:37:38;10.18;;;4.90;;
49502;SDS011;35409;48.776;9.204;2024-01-15T09:40:05;12.35;;;4.43;;
49502;SDS011;35409;48.776;9.204;2024-01-15T09:42:33;15.90;;;4.88;;
49502;SDS011;35409;48.776;9.204;2024-01-15T09:45:01;9.32;;;3.60;;
49502;SDS011;35409;48.776;9.204;2024-01-15T09:47:28;8.27;;;3.95;;
49502;SDS011;35409;48.776;9.204;2024-01-15T09:49:55;10.85;;;4.60;;
49502;SDS011;35409;48.776;9.204;2024-01-15T09:52:23;12.30;;;4.68;;
49502;SDS011;35409;48.776;9.204;2024-01-15T09:54:50;14.80;;;5.07;;
49502;SDS011;35409;48.776;9.204;2024-01-15T09:57:18;11.57;;;5.03;;
49502;SDS011;35409;48.776;9.204;2024-01-15T09:59:43;10.35;;;4.43;;
49502;SDS011;35409;48.776;9.204;2024-01-15T10:02:11;12.85;;;4.72;;
49502;SDS011;35409;48.776;9.204;2024-01-15T10:04:42;15.48;;;5.47;;
49502;SDS011;35409;48.776;9.204;2024-01-15T10:07:08;13.95;;;4.60;;
49502;SDS011;35409;48.776;9.204;2024-01-15T10:09:35;11.85;;;4.65;;
49502;SDS011;35409;48.776;9.204;2024-01-15T10:12:00;12.75;;;4.50;;
49502;SDS011;35409;48.776;9.204;2024-01-15T10:14:26;12.18;;;4.72;;
49502;SDS011;35409;48.776;9.204;2024-01-15T10:16:52;9.75;;;4.70;;
49502;SDS011;35409;48.776;9.204;2024-01-15T10:19:18;19.10;;;4.70;;
49502;SDS011;35409;48.776;9.204;2024-01-15T10:21:43;11.77;;;4.85;;
49502;SDS011;35409;48.776;9.204;2024-01-15T10:24:09;11.77;;;4.45;;
49502;SDS011;35409;48.776;9.204;2024-01-15T10:26:34;11.18;;;4.68;;
49502;SDS011;35409;48.776;9.204;2024-01-15T10:29:00;15.45;;;4.68;;
49502;SDS011;35409;48.776;9.204;2024-01-15T10:31:26;11.20;;;4.95;;
49502;SDS011;35409;48.776;9.204;2024-01-15T10:33:52;10.35;;;4.43;;
49502;SDS011;35409;48.776;9.204;2024-01-15T10:36:18;17.98;;;4.38;;
49502;SDS011;35409;48.776;9.204;2024-01-15T10:38:44;13.32;;;4.47;;
49502;SDS011;35409;48.776;9.204;2024-01-15T10:41:11;9.93;;;3.85;;
49502;SDS011;35409;48.776;9.204;2024-01-15T10:43:38;13.77;;;4.05;;
49502;SDS011;35409;48.776;9.204;2024-01-15T10:46:06;12.07;;;4.05;;
49502;SDS011;35409;48.776;9.204;2024-01-15T10:48:32;11.48;;;3.90;;
49502;SDS011;35409;48.776;9.204;2024-01-15T10:51:00;13.15;;;4.47;;
49502;SDS011;35409;48.776;9.204;2024-01-15T10:53:35;9.00;;;4.25;;
49502;SDS011;35409;48.776;9.204;2024-01-15T10:56:04;15.95;;;3.95;;
49502;SDS011;35409;48.776;9.204;2024-01-15T10:58:30;16.08;;;4.72;;
49502;SDS011;35409;48.776;9.204;2024-01-15T11:01:01;11.00;;;4.50;;
49502;SDS011;35409;48.776;9.204;2024-01-15T11:03:27;6.60;;;3.63;;
49502;SDS011;35409;48.776;9.204;2024-01-15T11:05:53;17.60;;;3.83;;
49502;SDS011;35409;48.776;9.204;2024-01-15T11:08:19;12.55;;;4.25;;
49502;SDS011;35409;48.776;9.204;2024-01-15T11:10:47;13.07;;;4.22;;
49502;SDS011;35409;48.776;9.204;2024-01-15T11:18:31;9.65;;;4.72;;
49502;SDS011;35409;48.776;9.204;2024-01-15T11:34:20;9.73;;;4.38;;
49502;SDS011;35409;48.776;9.204;2024-01-15T11:42:00;9.73;;;4.68;;
49502;SDS011;35409;48.776;9.204;2024-01-15T11:44:28;12.27;;;4.82;;
49502;SDS011;35409;48.776;9.204;2024-01-15T11:47:03;11.13;;;5.03;;
49502;SDS011;35409;48.776;9.204;2024-01-15T11:52:38;9.82;;;5.00;;
49502;SDS011;35409;48.776;9.204;2024-01-15T11:55:22;12.90;;;5.00;;
49502;SDS011;35409;48.776;9.204;2024-01-15T11:57:55;10.85;;;5.18;;
49502;SDS011;35409;48.776;9.204;2024-01-15T12:00:23;12.82;;;6.30;;
49502;SDS011;35409;48.776;9.204;2024-01-15T12:02:49;13.43;;;5.63;;
49502;SDS011;35409;48.776;9.204;2024-01-15T12:05:17;11.30;;;4.88;;
49502;SDS011;35409;48.776;9.204;2024-01-15T12:07:44;13.32;;;5.63;;
49502;SDS011;35409;48.776;9.204;2024-01-15T12:10:20;9.82;;;5.20;;
49502;SDS011;35409;48.776;9.204;2024-01-15T12:15:42;11.80;;;5.32;;
49502;SDS011;35409;48.776;9.204;2024-01-15T12:18:09;9.68;;;5.22;;
49502;SDS011;35409;48.776;9.204;2024-01-15T12:20:36;12.15;;;5.47;;
49502;SDS011;35409;48.776;9.204;2024-01-15T12:23:02;10.68;;;5.32;;
49502;SDS011;35409;48.776;9.204;2024-01-15T12:25:31;14.68;;;5.07;;
49502;SDS011;35409;48.776;9.204;2024-01-15T12:27:58;10.85;;;5.82;;
49502;SDS011;35409;48.776;9.204;2024-01-15T12:30:27;15.10;;;5.57;;
49502;SDS011;35409;48.776;9.204;2024-01-15T12:32:53;12.70;;;5.78;;
49502;SDS011;35409;48.776;9.204;2024-01-15T12:35:19;11.30;;;5.50;;
49502;SDS011;35409;48.776;9.204;2024-01-15T12:37:44;10.25;;;5.50;;
49502;SDS011;35409;48.776;9.204;2024-01-15T12:40:19;10.85;;;5.88;;
49502;SDS011;35409;48.776;9.204;2024-01-15T12:42:45;10.82;;;5.43;;
49502;SDS011;35409;48.776;9.204;2024-01-15T12:45:11;11.98;;;5.63;;
49502;SDS011;35409;48.776;9.204;2024-01-15T12:47:38;11.55;;;5.63;;
49502;SDS011;35409;48.776;9.204;2024-01-15T12:50:11;12.77;;;5.68;;
49502;SDS011;35409;48.776;9.204;2024-01-15T12:52:41;13.70;;;6.50;;
49502;SDS011;35409;48.776;9.204;2024-01-15T12:55:07;13.27;;;6.35;;
49502;SDS011;35409;48.776;9.204;2024-01-15T12:57:37;13.82;;;6.30;;
49502;SDS011;35409;48.776;9.204;2024-01-15T13:00:03;13.82;;;6.78;;
49502;SDS011;35409;48.776;9.204;2024-01-15T13:02:37;13.82;;;6.47;;
49502;SDS011;35409;48.776;9.204;2024-01-15T13:05:03;15.25;;;6.22;;
49502;SDS011;35409;48.776;9.204;2024-01-15T13:07:32;11.85;;;5.68;;
49502;SDS011;35409;48.776;9.204;2024-01-15T13:09:57;12.38;;;5.75;;
49502;SDS011;35409;48.776;9.204;2024-01-15T13:12:23;10.32;;;6.20;;
49502;SDS011;35409;48.776;9.204;2024-01-15T13:14:49;9.75;;;5.13;;
49502;SDS011;35409;48.776;9.204;2024-01-15T13:17:15;18.40;;;5.75;;
49502;SDS011;35409;48.776;9.204;2024-01-15T13:19:42;13.63;;;5.90;;
49502;SDS011;35409;48.776;9.204;2024-01-15T13:22:07;9.48;;;4.95;;
49502;SDS011;35409;48.776;9.204;2024-01-15T13:24:34;13.60;;;5.60;;
49502;SDS011;35409;48.776;9.204;2024-01-15T13:27:01;11.75;;;5.30;;
49502;SDS011;35409;48.776;9.204;2024-01-15T13:29:28;12.20;;;5.38;;
49502;SDS011;35409;48.776;9.204;2024-01-15T13:31:54;10.55;;;4.72;;
49502;SDS011;35409;48.776;9.204;2024-01-15T13:34:20;9.55;;;3.97;;
49502;SDS011;35409;48.776;9.204;2024-01-15T13:36:46;15.05;;;4.60;;
49502;SDS011;35409;48.776;9.204;2024-01-15T13:39:11;11.05;;;4.13;;
49502;SDS011;35409;48.776;9.204;2024-01-15T13:41:37;10.10;;;4.10;;
49502;SDS011;35409;48.776;9.204;2024-01-15T13:44:03;10.23;;;3.95;;
49502;SDS011;35409;48.776;9.204;2024-01-15T13:46:29;10.55;;;4.80;;
49502;SDS011;35409;48.776;9.204;2024-01-15T13:48:54;8.95;;;4.30;;
49502;SDS011;35409;48.776;9.204;2024-01-15T13:51:23;9.73;;;4.60;;
49502;SDS011;35409;48.776;9.204;2024-01-15T13:53:50;7.83;;;3.97;;
49502;SDS011;35409;48.776;9.204;2024-01-15T13:56:16;13.63;;;4.35;;
49502;SDS011;35409;48.776;9.204;2024-01-15T13:58:41;7.40;;;3.30;;
49502;SDS011;35409;48.776;9.204;2024-01-15T14:01:08;8.27;;;4.13;;
49502;SDS011;35409;48.776;9.204;2024-01-15T14:03:34;11.57;;;4.90;;
49502;SDS011;35409;48.776;9.204;2024-01-15T14:06:00;13.63;;;4.40;;
49502;SDS011;35409;48.776;9.204;2024-01-15T14:08:28;10.27;;;4.57;;
49502;SDS011;35409;48.776;9.204;2024-01-15T14:10:53;7.55;;;4.22;;
49502;SDS011;35409;48.776;9.204;2024-01-15T14:13:20;6.10;;;3.53;;
49502;SDS011;35409;48.776;9.204;2024-01-15T14:15:47;8.20;;;4.63;;
49502;SDS011;35409;48.776;9.204;2024-01-15T14:18:15;8.88;;;4.32;;
49502;SDS011;35409;48.776;9.204;2024-01-15T14:20:42;10.95;;;4.15;;
49502;SDS011;35409;48.776;9.204;2024-01-15T14:23:09;5.72;;;3.50;;
49502;SDS011;35409;48.776;9.204;2024-01-15T14:25:35;9.30;;;4.22;;
49502;SDS011;35409;48.776;9.204;2024-01-15T14:28:02;8.02;;;3.97;;
49502;SDS011;35409;48.776;9.204;2024-01-15T14:30:28;7.38;;;3.10;;
49502;SDS011;35409;48.776;9.204;2024-01-15T14:32:57;10.85;;;4.00;;
49502;SDS011;35409;48.776;9.204;2024-01-15T14:35:33;7.75;;;3.53;;
49502;SDS011;35409;48.776;9.204;2024-01-15T14:38:46;7.95;;;3.97;;
49502;SDS011;35409;48.776;9.204;2024-01-15T14:41:14;10.40;;;5.07;;
49502;SDS011;35409;48.776;9.204;2024-01-15T14:43:41;4.88;;;3.40;;
49502;SDS011;35409;48.776;9.204;2024-01-15T14:46:07;6.50;;;3.78;;
49502;SDS011;35409;48.776;9.204;2024-01-15T14:48:33;8.02;;;3.60;;
49502;SDS011;35409;48.776;9.204;2024-01-15T14:50:58;8.20;;;4.20;;
49502;SDS011;35409;48.776;9.204;2024-01-15T14:53:24;6.57;;;3.67;;
49502;SDS011;35409;48.776;9.204;2024-01-15T14:55:50;12.50;;;4.80;;
49502;SDS011;35409;48.776;9.204;2024-01-15T14:58:15;8.25;;;5.20;;
49502;SDS011;35409;48.776;9.204;2024-01-15T15:00:41;7.63;;;4.70;;